createdAt,value
2018-04-18T00:00:00.453Z,99054.16
2018-04-18T00:02:29.492Z,99052.36
2018-04-18T00:04:57.726Z,99050.34
2018-04-18T00:07:25.974Z,99051.36
2018-04-18T00:09:54.219Z,99054.88
2018-04-18T00:12:22.475Z,99054.50
2018-04-18T00:14:50.795Z,99050.61
2018-04-18T00:17:19.047Z,99050.34
2018-04-18T00:19:47.304Z,99054.54
2018-04-18T00:22:15.568Z,99047.78
2018-04-18T00:24:44.582Z,99051.20
2018-04-18T00:27:13.584Z,99049.70
2018-04-18T00:29:42.611Z,99054.61
2018-04-18T00:32:10.857Z,99063.35
2018-04-18T00:34:39.120Z,99053.69
2018-04-18T00:37:07.603Z,99058.30
2018-04-18T00:39:35.866Z,99056.08
2018-04-18T00:42:04.887Z,99059.92
2018-04-18T00:44:33.147Z,99066.30
2018-04-18T00:47:02.181Z,99058.58
2018-04-18T00:49:30.440Z,99060.75
2018-04-18T00:51:59.448Z,99064.03
2018-04-18T00:54:28.479Z,99061.22
2018-04-18T00:56:56.722Z,99056.61
2018-04-18T00:59:24.979Z,99060.36
2018-04-18T01:01:53.228Z,99058.63
2018-04-18T01:04:22.249Z,99060.62
2018-04-18T01:06:50.479Z,99064.77
2018-04-18T01:09:18.739Z,99059.93
2018-04-18T01:11:46.987Z,99062.41
2018-04-18T01:14:15.237Z,99071.06
2018-04-18T01:16:43.494Z,99066.36
2018-04-18T01:19:11.759Z,99066.13
2018-04-18T01:21:40.773Z,99073.27
2018-04-18T01:24:10.531Z,99077.45
2018-04-18T01:26:38.781Z,99079.43
2018-04-18T01:29:07.022Z,99084.71
2018-04-18T01:31:35.247Z,99079.42
2018-04-18T01:34:03.510Z,99083.31
2018-04-18T01:36:31.783Z,99087.88
2018-04-18T01:39:00.196Z,99087.50
2018-04-18T01:41:28.441Z,99090.28
2018-04-18T01:43:56.698Z,99092.95
2018-04-18T01:46:24.962Z,99097.76
2018-04-18T01:52:00.968Z,99096.58
2018-04-18T01:54:30.004Z,99088.64
2018-04-18T01:56:58.400Z,99102.77
2018-04-18T01:59:27.424Z,99107.47
2018-04-18T02:01:55.672Z,99100.61
2018-04-18T02:04:23.927Z,99099.70
2018-04-18T02:06:52.914Z,99101.97
2018-04-18T02:09:21.168Z,99104.33
2018-04-18T02:11:49.394Z,99102.27
2018-04-18T02:14:17.639Z,99109.84
2018-04-18T02:16:45.939Z,99107.59
2018-04-18T02:19:15.349Z,99103.37
2018-04-18T02:21:43.578Z,99100.92
2018-04-18T02:24:11.827Z,99099.79
2018-04-18T02:26:40.825Z,99100.23
2018-04-18T02:29:09.084Z,99110.44
2018-04-18T02:31:37.314Z,99110.83
2018-04-18T02:34:06.331Z,99105.55
2018-04-18T02:36:35.324Z,99112.91
2018-04-18T02:39:04.390Z,99112.48
2018-04-18T02:41:32.618Z,99114.11
2018-04-18T02:44:01.665Z,99110.65
2018-04-18T02:46:29.899Z,99110.84
2018-04-18T02:48:58.162Z,99117.00
2018-04-18T02:51:26.387Z,99117.70
2018-04-18T02:53:55.407Z,99116.28
2018-04-18T02:56:24.399Z,99115.96
2018-04-18T02:58:52.638Z,99116.78
2018-04-18T03:01:20.888Z,99115.36
2018-04-18T03:03:49.167Z,99119.05
2018-04-18T03:06:18.186Z,99124.16
2018-04-18T03:08:47.187Z,99123.35
2018-04-18T03:11:16.215Z,99120.67
2018-04-18T03:13:44.447Z,99130.19
2018-04-18T03:16:12.716Z,99126.81
2018-04-18T03:18:40.956Z,99122.63
2018-04-18T03:21:09.987Z,99121.83
2018-04-18T03:23:38.226Z,99124.17
2018-04-18T03:26:06.470Z,99129.88
2018-04-18T03:28:34.714Z,99122.52
2018-04-18T03:31:02.979Z,99130.39
2018-04-18T03:33:31.199Z,99131.63
2018-04-18T03:36:00.265Z,99130.38
2018-04-18T03:38:29.500Z,99131.93
2018-04-18T03:40:57.751Z,99130.20
2018-04-18T03:43:25.984Z,99124.05
2018-04-18T03:45:54.259Z,99131.63
2018-04-18T03:48:23.668Z,99128.94
2018-04-18T03:50:51.938Z,99127.33
2018-04-18T03:53:20.166Z,99122.92
2018-04-18T03:55:48.428Z,99121.38
2018-04-18T03:58:16.659Z,99126.70
2018-04-18T04:00:45.686Z,99128.12
2018-04-18T04:03:13.915Z,99140.58
2018-04-18T04:05:42.155Z,99136.78
2018-04-18T04:08:11.155Z,99136.23
2018-04-18T04:10:40.157Z,99133.30
2018-04-18T04:13:09.163Z,99139.13
2018-04-18T04:15:37.402Z,99142.47
2018-04-18T04:18:23.363Z,99144.70
2018-04-18T04:21:10.187Z,99139.39
2018-04-18T04:23:56.892Z,99146.49
2018-04-18T04:26:25.148Z,99145.56
2018-04-18T04:28:53.370Z,99150.20
2018-04-18T04:31:21.623Z,99147.18
2018-04-18T04:33:49.856Z,99151.67
2018-04-18T04:36:18.141Z,99147.87
2018-04-18T04:38:47.924Z,99141.96
2018-04-18T04:41:16.186Z,99144.94
2018-04-18T04:43:45.181Z,99144.75
2018-04-18T04:46:14.187Z,99153.13
2018-04-18T04:48:43.188Z,99158.84
2018-04-18T04:51:12.222Z,99153.98
2018-04-18T04:53:40.454Z,99163.27
2018-04-18T04:56:08.711Z,99161.63
2018-04-18T04:58:36.941Z,99165.84
2018-04-18T05:01:05.183Z,99169.09
2018-04-18T05:03:33.439Z,99170.86
2018-04-18T05:06:02.456Z,99180.13
2018-04-18T05:08:30.711Z,99179.84
2018-04-18T05:10:58.972Z,99181.98
2018-04-18T05:13:27.987Z,99181.69
2018-04-18T05:15:56.251Z,99181.08
2018-04-18T05:18:24.503Z,99188.38
2018-04-18T05:20:53.494Z,99190.11
2018-04-18T05:23:21.757Z,99194.39
2018-04-18T05:25:49.994Z,99200.64
2018-04-18T05:28:18.244Z,99201.23
2018-04-18T05:30:46.492Z,99200.58
2018-04-18T05:33:14.809Z,99208.37
2018-04-18T05:35:43.085Z,99203.75
2018-04-18T05:38:12.838Z,99203.60
2018-04-18T05:40:41.071Z,99203.41
2018-04-18T05:43:09.345Z,99205.36
2018-04-18T05:45:38.373Z,99200.94
2018-04-18T05:48:06.627Z,99197.71
2018-04-18T05:50:35.638Z,99204.25
2018-04-18T05:53:04.693Z,99209.86
2018-04-18T05:55:32.942Z,99217.25
2018-04-18T05:58:02.348Z,99209.75
2018-04-18T06:00:31.384Z,99215.70
2018-04-18T06:03:00.740Z,99204.48
2018-04-18T06:05:28.976Z,99208.95
2018-04-18T06:07:57.235Z,99209.39
2018-04-18T06:10:25.492Z,99208.76
2018-04-18T06:12:54.522Z,99219.37
2018-04-18T06:15:22.781Z,99220.97
2018-04-18T06:17:51.151Z,99218.63
2018-04-18T06:20:19.411Z,99217.86
2018-04-18T06:22:48.478Z,99223.27
2018-04-18T06:25:16.728Z,99222.72
2018-04-18T06:27:44.986Z,99218.99
2018-04-18T06:30:13.240Z,99217.58
2018-04-18T06:32:41.515Z,99213.92
2018-04-18T06:35:09.772Z,99221.27
2018-04-18T06:37:38.007Z,99219.22
2018-04-18T06:40:06.450Z,99227.52
2018-04-18T06:42:35.400Z,99224.94
2018-04-18T06:45:03.704Z,99222.20
2018-04-18T06:47:31.991Z,99227.61
2018-04-18T06:50:00.274Z,99219.19
2018-04-18T06:52:28.519Z,99233.44
2018-04-18T06:54:56.803Z,99223.79
2018-04-18T06:57:25.898Z,99225.03
2018-04-18T06:59:54.188Z,99218.11
2018-04-18T07:02:23.824Z,99227.69
2018-04-18T07:04:52.847Z,99229.17
2018-04-18T07:07:21.122Z,99221.78
2018-04-18T07:09:49.416Z,99218.67
2018-04-18T07:12:18.457Z,99224.03
2018-04-18T07:14:46.735Z,99233.56
2018-04-18T07:17:14.987Z,99221.72
2018-04-18T07:19:44.022Z,99227.95
2018-04-18T07:22:12.278Z,99221.41
2018-04-18T07:24:40.556Z,99225.09
2018-04-18T07:27:09.434Z,99226.01
2018-04-18T07:29:37.712Z,99231.93
2018-04-18T07:32:06.721Z,99232.08
2018-04-18T07:34:34.997Z,99242.72
2018-04-18T07:37:03.256Z,99242.16
2018-04-18T07:39:31.551Z,99249.27
2018-04-18T07:42:00.571Z,99248.63
2018-04-18T07:44:28.887Z,99243.56
2018-04-18T07:46:57.913Z,99251.63
2018-04-18T07:49:26.208Z,99251.48
2018-04-18T07:51:54.451Z,99254.42
2018-04-18T07:54:22.729Z,99250.15
2018-04-18T07:56:50.976Z,99257.19
2018-04-18T07:59:19.215Z,99251.47
2018-04-18T08:01:47.593Z,99257.98
2018-04-18T08:04:15.835Z,99251.09
2018-04-18T08:06:45.616Z,99251.90
2018-04-18T08:09:13.859Z,99252.16
2018-04-18T08:11:43.623Z,99256.38
2018-04-18T08:14:11.894Z,99260.16
2018-04-18T08:16:40.152Z,99263.13
2018-04-18T08:19:08.394Z,99258.35
2018-04-18T08:21:38.165Z,99255.59
2018-04-18T08:24:06.415Z,99256.03
2018-04-18T08:26:34.671Z,99260.32
2018-04-18T08:29:03.687Z,99259.39
2018-04-18T08:31:32.727Z,99259.34
2018-04-18T08:34:01.039Z,99256.94
2018-04-18T08:36:29.284Z,99264.81
2018-04-18T08:38:57.546Z,99259.21
2018-04-18T08:41:26.569Z,99261.27
2018-04-18T08:43:54.801Z,99258.37
2018-04-18T08:46:23.095Z,99258.94
2018-04-18T08:48:51.348Z,99256.61
2018-04-18T08:51:20.365Z,99264.69
2018-04-18T08:53:48.601Z,99265.43
2018-04-18T08:56:16.864Z,99258.98
2018-04-18T08:58:45.117Z,99258.96
2018-04-18T09:01:13.375Z,99257.20
2018-04-18T09:03:42.425Z,99266.71
2018-04-18T09:06:10.687Z,99264.91
2018-04-18T09:08:39.767Z,99266.23
2018-04-18T09:11:08.124Z,99260.85
2018-04-18T09:13:36.389Z,99255.95
2018-04-18T09:16:05.462Z,99255.75
2018-04-18T09:18:33.704Z,99260.79
2018-04-18T09:21:02.004Z,99263.95
2018-04-18T09:23:30.265Z,99264.66
2018-04-18T09:25:58.519Z,99263.58
2018-04-18T09:28:26.858Z,99260.94
2018-04-18T09:30:55.048Z,99261.91
2018-04-18T09:33:23.313Z,99262.19
2018-04-18T09:35:52.337Z,99257.33
2018-04-18T09:38:20.589Z,99260.79
2018-04-18T09:40:49.597Z,99260.78
2018-04-18T09:43:18.683Z,99264.22
2018-04-18T09:45:46.965Z,99265.11
2018-04-18T09:48:15.274Z,99254.86
2018-04-18T09:50:43.542Z,99266.10
2018-04-18T09:53:11.799Z,99260.14
2018-04-18T09:55:40.068Z,99257.36
2018-04-18T09:58:09.121Z,99256.72
2018-04-18T10:00:42.831Z,99263.55
2018-04-18T10:03:15.840Z,99252.80
2018-04-18T10:05:44.081Z,99256.03
2018-04-18T10:08:12.382Z,99258.14
2018-04-18T10:10:40.639Z,99251.58
2018-04-18T10:13:08.921Z,99248.43
2018-04-18T10:15:37.164Z,99250.36
2018-04-18T10:18:05.424Z,99240.48
2018-04-18T10:20:33.677Z,99249.88
2018-04-18T10:23:02.005Z,99239.97
2018-04-18T10:25:31.063Z,99241.11
2018-04-18T10:27:59.331Z,99241.77
2018-04-18T10:30:27.607Z,99239.52
2018-04-18T10:32:55.878Z,99247.14
2018-04-18T10:35:24.147Z,99237.89
2018-04-18T10:37:53.178Z,99248.45
2018-04-18T10:40:21.464Z,99233.70
2018-04-18T10:42:49.714Z,99240.63
2018-04-18T10:45:17.981Z,99229.13
2018-04-18T10:47:46.214Z,99231.39
2018-04-18T10:50:15.272Z,99223.16
2018-04-18T10:52:43.518Z,99233.03
2018-04-18T10:55:12.530Z,99230.42
2018-04-18T10:57:40.794Z,99225.78
2018-04-18T11:00:10.222Z,99222.77
2018-04-18T11:02:39.228Z,99222.07
2018-04-18T11:05:09.101Z,99218.71
2018-04-18T11:07:37.352Z,99230.57
2018-04-18T11:10:06.386Z,99230.42
2018-04-18T11:12:34.623Z,99214.12
2018-04-18T11:15:03.651Z,99206.49
2018-04-18T11:17:33.255Z,99214.69
2018-04-18T11:20:01.595Z,99207.05
2018-04-18T11:22:29.830Z,99203.64
2018-04-18T11:24:58.109Z,99203.88
2018-04-18T11:27:26.358Z,99207.90
2018-04-18T11:29:54.613Z,99207.69
2018-04-18T11:32:23.624Z,99200.28
2018-04-18T11:34:52.632Z,99196.27
2018-04-18T11:37:21.643Z,99196.11
2018-04-18T11:39:50.002Z,99199.14
2018-04-18T11:42:18.228Z,99196.58
2018-04-18T11:44:46.487Z,99197.27
2018-04-18T11:47:14.761Z,99185.05
2018-04-18T11:49:43.019Z,99195.85
2018-04-18T11:52:11.289Z,99190.41
2018-04-18T11:54:39.562Z,99190.00
2018-04-18T11:57:07.978Z,99191.17
2018-04-18T11:59:36.238Z,99183.89
2018-04-18T12:02:05.236Z,99181.00
2018-04-18T12:04:34.257Z,99181.69
2018-04-18T12:07:03.291Z,99176.86
2018-04-18T12:09:32.309Z,99178.90
2018-04-18T12:12:00.562Z,99184.38
2018-04-18T12:14:28.815Z,99181.47
2018-04-18T12:16:57.077Z,99174.62
2018-04-18T12:19:25.319Z,99172.81
2018-04-18T12:21:54.384Z,99167.88
2018-04-18T12:24:22.648Z,99177.73
2018-04-18T12:26:50.939Z,99170.31
2018-04-18T12:29:19.183Z,99171.69
2018-04-18T12:31:48.204Z,99167.37
2018-04-18T12:34:17.214Z,99173.80
2018-04-18T12:36:46.233Z,99169.06
2018-04-18T12:39:14.495Z,99167.56
2018-04-18T12:41:43.520Z,99172.53
2018-04-18T12:44:11.755Z,99165.61
2018-04-18T12:46:40.007Z,99159.17
2018-04-18T12:49:08.273Z,99165.02
2018-04-18T12:51:36.635Z,99161.06
2018-04-18T12:54:04.881Z,99167.66
2018-04-18T12:56:33.169Z,99151.42
2018-04-18T12:59:02.199Z,99148.74
2018-04-18T13:01:30.501Z,99156.94
2018-04-18T13:03:58.737Z,99156.63
2018-04-18T13:06:27.050Z,99150.50
2018-04-18T13:08:55.304Z,99146.03
2018-04-18T13:11:23.569Z,99142.03
2018-04-18T13:13:51.818Z,99143.45
2018-04-18T13:16:20.073Z,99143.94
2018-04-18T13:18:49.089Z,99144.09
2018-04-18T13:21:18.104Z,99136.92
2018-04-18T13:23:46.363Z,99142.61
2018-04-18T13:26:14.611Z,99139.44
2018-04-18T13:28:42.868Z,99131.85
2018-04-18T13:31:11.107Z,99124.56
2018-04-18T13:33:39.368Z,99125.91
2018-04-18T13:36:07.636Z,99131.94
2018-04-18T13:38:35.885Z,99126.44
2018-04-18T13:41:04.155Z,99126.69
2018-04-18T13:43:32.432Z,99129.30
2018-04-18T13:46:00.692Z,99130.41
2018-04-18T13:48:28.954Z,99118.91
2018-04-18T13:50:57.964Z,99120.39
2018-04-18T13:53:26.975Z,99126.57
2018-04-18T13:55:55.995Z,99116.97
2018-04-18T13:58:24.263Z,99115.42
2018-04-18T14:00:53.365Z,99115.89
2018-04-18T14:03:22.444Z,99111.00
2018-04-18T14:05:50.706Z,99108.48
2018-04-18T14:08:18.974Z,99106.89
2018-04-18T14:10:47.223Z,99116.20
2018-04-18T14:13:15.483Z,99111.17
2018-04-18T14:15:43.721Z,99110.11
2018-04-18T14:18:12.760Z,99088.22
2018-04-18T14:20:41.043Z,99098.66
2018-04-18T14:23:10.077Z,99091.80
2018-04-18T14:25:38.315Z,99090.84
2018-04-18T14:28:07.347Z,99097.44
2018-04-18T14:30:35.587Z,99095.88
2018-04-18T14:33:03.842Z,99093.21
2018-04-18T14:35:32.075Z,99081.78
2018-04-18T14:38:01.115Z,99086.84
2018-04-18T14:40:29.361Z,99087.78
2018-04-18T14:42:57.605Z,99078.83
2018-04-18T14:45:25.891Z,99087.96
2018-04-18T14:47:54.906Z,99077.95
2018-04-18T14:50:23.159Z,99073.27
2018-04-18T14:52:52.256Z,99076.53
2018-04-18T14:55:21.679Z,99077.99
2018-04-18T14:57:49.933Z,99079.23
2018-04-18T15:00:18.239Z,99091.06
2018-04-18T15:02:46.540Z,99076.03
2018-04-18T15:05:15.588Z,99076.16
2018-04-18T15:07:43.841Z,99079.47
2018-04-18T15:10:12.892Z,99079.60
2018-04-18T15:12:41.145Z,99070.81
2018-04-18T15:15:10.538Z,99076.20
2018-04-18T15:17:39.544Z,99077.99
2018-04-18T15:20:07.815Z,99072.05
2018-04-18T15:22:36.188Z,99062.86
2018-04-18T15:25:04.435Z,99070.75
2018-04-18T15:27:33.527Z,99067.06
2018-04-18T15:30:01.834Z,99066.75
2018-04-18T15:32:30.867Z,99064.52
2018-04-18T15:34:59.120Z,99061.35
2018-04-18T15:37:28.141Z,99060.69
2018-04-18T15:39:56.403Z,99056.12
2018-04-18T15:42:24.657Z,99060.39
2018-04-18T15:44:52.911Z,99054.69
2018-04-18T15:47:21.217Z,99060.56
2018-04-18T15:49:49.471Z,99061.63
2018-04-18T15:52:18.485Z,99054.52
2018-04-18T15:54:47.525Z,99054.23
2018-04-18T15:57:15.783Z,99051.47
2018-04-18T15:59:44.797Z,99042.22
2018-04-18T16:02:13.087Z,99044.07
2018-04-18T16:04:41.316Z,99045.58
2018-04-18T16:07:09.554Z,99045.61
2018-04-18T16:09:37.835Z,99051.95
2018-04-18T16:12:06.843Z,99046.08
2018-04-18T16:14:35.848Z,99039.83
2018-04-18T16:17:04.875Z,99054.05
2018-04-18T16:19:33.874Z,99049.78
2018-04-18T16:22:02.910Z,99046.72
2018-04-18T16:24:31.213Z,99055.68
2018-04-18T16:27:00.244Z,99049.65
2018-04-18T16:29:46.282Z,99049.75
2018-04-18T16:32:15.358Z,99053.65
2018-04-18T16:34:43.607Z,99046.63
2018-04-18T16:37:11.874Z,99051.21
2018-04-18T16:39:42.168Z,99051.77
2018-04-18T16:42:10.423Z,99045.91
2018-04-18T16:44:38.667Z,99043.96
2018-04-18T16:47:08.469Z,99035.73
2018-04-18T16:49:36.749Z,99037.83
2018-04-18T16:52:05.366Z,99040.28
2018-04-18T16:54:33.674Z,99035.89
2018-04-18T16:57:01.988Z,99035.23
2018-04-18T16:59:30.274Z,99038.60
2018-04-18T17:01:59.321Z,99038.98
2018-04-18T17:04:27.570Z,99036.02
2018-04-18T17:06:55.868Z,99036.05
2018-04-18T17:09:24.914Z,99040.42
2018-04-18T17:11:53.206Z,99035.22
2018-04-18T17:14:21.455Z,99038.93
2018-04-18T17:16:49.807Z,99038.55
2018-04-18T17:19:18.068Z,99039.76
2018-04-18T17:21:46.353Z,99031.50
2018-04-18T17:24:14.973Z,99032.00
2018-04-18T17:26:43.240Z,99040.37
2018-04-18T17:29:11.522Z,99038.94
2018-04-18T17:31:39.839Z,99041.23
2018-04-18T17:34:08.137Z,99039.78
2018-04-18T17:36:36.432Z,99039.32
2018-04-18T17:39:05.466Z,99036.02
2018-04-18T17:41:33.761Z,99034.68
2018-04-18T17:44:02.895Z,99037.98
2018-04-18T17:46:31.192Z,99030.31
2018-04-18T17:48:59.854Z,99032.75
2018-04-18T17:51:28.144Z,99035.44
2018-04-18T17:53:56.555Z,99038.34
2018-04-18T17:56:24.831Z,99039.47
2018-04-18T17:58:53.144Z,99037.52
2018-04-18T18:01:21.401Z,99043.09
2018-04-18T18:03:49.747Z,99040.46
2018-04-18T18:06:18.847Z,99041.50
2018-04-18T18:08:47.156Z,99036.70
2018-04-18T18:11:16.236Z,99038.73
2018-04-18T18:13:44.519Z,99027.97
2018-04-18T18:16:12.841Z,99035.91
2018-04-18T18:18:41.212Z,99036.43
2018-04-18T18:21:09.494Z,99031.22
2018-04-18T18:23:37.807Z,99039.25
2018-04-18T18:26:06.197Z,99040.83
2018-04-18T18:28:35.830Z,99040.41
2018-04-18T18:31:04.093Z,99039.63
2018-04-18T18:33:32.459Z,99042.15
2018-04-18T18:36:00.734Z,99045.00
2018-04-18T18:38:29.032Z,99049.80
2018-04-18T18:40:57.314Z,99049.37
2018-04-18T18:43:25.685Z,99050.08
2018-04-18T18:45:53.928Z,99049.52
2018-04-18T18:48:22.199Z,99044.28
2018-04-18T18:50:50.488Z,99057.75
2018-04-18T18:53:18.772Z,99052.69
2018-04-18T18:55:47.038Z,99055.00
2018-04-18T18:58:15.312Z,99059.58
2018-04-18T19:00:43.600Z,99060.92
2018-04-18T19:03:11.899Z,99062.27
2018-04-18T19:05:40.985Z,99061.31
2018-04-18T19:08:09.359Z,99066.67
2018-04-18T19:10:37.552Z,99069.36
2018-04-18T19:13:05.818Z,99078.17
2018-04-18T19:15:34.235Z,99077.61
2018-04-18T19:18:02.524Z,99075.70
2018-04-18T19:20:30.843Z,99072.75
2018-04-18T19:22:59.150Z,99079.88
2018-04-18T19:25:28.541Z,99071.25
2018-04-18T19:27:57.580Z,99070.52
2018-04-18T19:30:25.864Z,99073.08
2018-04-18T19:32:54.920Z,99074.05
2018-04-18T19:35:24.265Z,99068.81
2018-04-18T19:37:52.529Z,99069.63
2018-04-18T19:40:20.807Z,99067.12
2018-04-18T19:42:49.092Z,99065.91
2018-04-18T19:45:17.406Z,99088.00
2018-04-18T19:47:45.716Z,99080.66
2018-04-18T19:50:14.765Z,99079.63
2018-04-18T19:52:43.036Z,99072.80
2018-04-18T19:55:12.106Z,99072.58
2018-04-18T19:57:40.368Z,99077.64
2018-04-18T20:00:08.651Z,99074.51
2018-04-18T20:02:36.940Z,99075.49
2018-04-18T20:05:05.283Z,99078.83
2018-04-18T20:07:33.523Z,99073.91
2018-04-18T20:10:01.863Z,99078.19
2018-04-18T20:12:31.301Z,99077.89
2018-04-18T20:14:59.619Z,99076.52
2018-04-18T20:17:27.897Z,99070.55
2018-04-18T20:19:56.171Z,99071.84
2018-04-18T20:22:24.486Z,99068.05
2018-04-18T20:24:52.723Z,99066.80
2018-04-18T20:27:21.755Z,99062.36
2018-04-18T20:29:50.085Z,99060.78
2018-04-18T20:32:19.266Z,99059.25
2018-04-18T20:34:47.511Z,99058.77
2018-04-18T20:37:16.459Z,99060.51
2018-04-18T20:39:44.705Z,99054.14
2018-04-18T20:42:12.964Z,99058.39
2018-04-18T20:44:41.209Z,99056.46
2018-04-18T20:47:10.227Z,99052.19
2018-04-18T20:49:38.505Z,99055.28
2018-04-18T20:52:06.755Z,99054.83
2018-04-18T20:54:35.000Z,99060.27
2018-04-18T20:57:03.275Z,99063.53
2018-04-18T20:59:31.565Z,99057.86
2018-04-18T21:01:59.882Z,99056.78
2018-04-18T21:04:28.152Z,99056.31
2018-04-18T21:06:56.404Z,99055.08
2018-04-18T21:09:25.428Z,99050.47
2018-04-18T21:11:54.457Z,99056.10
2018-04-18T21:14:22.722Z,99054.23
2018-04-18T21:16:51.737Z,99045.40
2018-04-18T21:19:19.983Z,99048.03
2018-04-18T21:21:48.256Z,99052.83
2018-04-18T21:24:16.769Z,99049.05
2018-04-18T21:26:45.836Z,99052.03
2018-04-18T21:29:14.097Z,99042.94
2018-04-18T21:31:43.116Z,99045.23
2018-04-18T21:34:11.359Z,99042.63
2018-04-18T21:36:39.624Z,99037.14
2018-04-18T21:39:07.857Z,99038.55
2018-04-18T21:41:36.857Z,99039.06
2018-04-18T21:44:05.848Z,99042.81
2018-04-18T21:46:34.123Z,99041.91
2018-04-18T21:49:02.368Z,99044.52
2018-04-18T21:51:32.322Z,99032.58
2018-04-18T21:54:00.588Z,99032.94
2018-04-18T21:56:29.615Z,99035.02
2018-04-18T21:58:57.915Z,99037.56
2018-04-18T22:01:26.194Z,99032.88
2018-04-18T22:03:54.427Z,99023.52
2018-04-18T22:06:22.663Z,99039.14
2018-04-18T22:08:50.927Z,99038.58
2018-04-18T22:11:19.192Z,99041.78
2018-04-18T22:13:47.443Z,99039.55
2018-04-18T22:16:15.704Z,99041.83
2018-04-18T22:18:43.969Z,99040.22
2018-04-18T22:21:12.983Z,99039.07
2018-04-18T22:23:42.012Z,99040.20
2018-04-18T22:26:10.250Z,99046.31
2018-04-18T22:28:38.556Z,99042.48
2018-04-18T22:31:07.563Z,99039.30
2018-04-18T22:33:36.580Z,99040.30
2018-04-18T22:36:05.594Z,99040.63
2018-04-18T22:38:33.871Z,99038.23
2018-04-18T22:41:02.887Z,99036.50
2018-04-18T22:43:31.190Z,99043.13
2018-04-18T22:45:59.457Z,99039.63
2018-04-18T22:48:27.695Z,99048.58
2018-04-18T22:50:55.960Z,99046.19
2018-04-18T22:53:24.252Z,99047.64
2018-04-18T22:55:53.261Z,99044.03
2018-04-18T22:58:21.517Z,99049.98
2018-04-18T23:00:50.531Z,99043.09
2018-04-18T23:03:18.786Z,99041.67
2018-04-18T23:05:47.021Z,99046.25
2018-04-18T23:08:15.288Z,99045.51
2018-04-18T23:10:44.294Z,99047.19
2018-04-18T23:13:12.555Z,99045.59
2018-04-18T23:15:40.807Z,99049.31
2018-04-18T23:18:09.061Z,99045.30
2018-04-18T23:20:38.102Z,99041.05
2018-04-18T23:23:06.345Z,99040.11
2018-04-18T23:25:34.604Z,99040.87
2018-04-18T23:28:02.866Z,99042.28
2018-04-18T23:30:31.146Z,99037.63
2018-04-18T23:32:59.389Z,99035.34
2018-04-18T23:35:27.659Z,99033.40
2018-04-18T23:37:55.898Z,99040.66
2018-04-18T23:40:24.160Z,99033.93
2018-04-18T23:42:52.398Z,99036.37
2018-04-18T23:45:20.685Z,99039.45
2018-04-18T23:47:48.990Z,99034.26
2018-04-18T23:50:17.251Z,99036.99
2018-04-18T23:52:46.259Z,99039.16
2018-04-18T23:55:14.522Z,99031.89
2018-04-18T23:57:43.526Z,99031.28
